KCUT

Custer County Airport

Custer, South Dakota, USA
METAR KCUT 180153Z AUTO 11003KT 10SM CLR 20/12 A3025 RMK AO2 SLP183 T02000117 TSNO
Observed Flight Rules
Aug-18 @ 01:53 UTC (36 minutes ago) Visual Flight Rules
Wind Visibility Clouds
110° at 3 knots 10 miles
  • Clear skies
Temperatures Readings
Current 20°C / 68°F
Dewpoint 12°C / 54°F
Humidity 60%
Altimeter 30.25" Hg
Pressure 1018.3 hPa
Elevation 1725
METAR KCUT 180153Z AUTO 11003KT 10SM CLR 20/12 A3025 RMK AO2 SLP183 T02000117 TSNO
Observed Flight Rules
Aug-18 @ 01:53 UTC
(36 minutes ago)
VFR
Wind Visibility
110° at 3 knots 10 miles
Clouds
  • Clear skies
Temperature Dewpoint
20°C / 68°F 12°C / 54°F
Humidity Altimeter Pressure
60% 30.25" Hg 1018.3 hPa